Quick Links (Output Below):   Max & Min Temps   /   Climate Reports   /   Zone Forecasts
River Forecasts   /   Forestry Forecasts   /   Aviation Forecasts   /   Radars   /   Features

Terminal Aerodrome Forecast (Pine Bluff)

Pick a Site:
Arkadelphia | El Dorado | Fayetteville | Fort Smith | Harrison | Highfill | Hot Springs | Jonesboro
Little Rock | Monticello | Mountain Home | Pine Bluff | Texarkana

KPBF 271734Z 2718/2818 16011KT P6SM VCSH OVC018
      TEMPO 2718/2722 6SM -RA BR OVC010
     FM272200 17010G20KT P6SM VCSH BKN012 OVC025
     FM280600 16006KT P6SM VCSH OVC015 PROB30 2806/2812 4SM -SHRA BR
      BKN008 OVC012
     FM281500 VRB05KT 2SM -RA BR OVC004=

 Latest METARs (Observations) 
How to Decode METARs
20Z KPBF 271953Z AUTO 18012KT 10SM OVC024 22/17 A3016 RMK AO2 SLP213
19Z KPBF 271853Z AUTO 18013G20KT 10SM BKN025 BKN120 21/17 A3019 RMK
         AO2 RAE16 SLP220 P0000 T02110167
18Z KPBF 271753Z AUTO 18012KT 10SM -RA OVC020 20/17 A3021 RMK AO2
         RAB21E31B49 SLP229 P0000 60001 T02000167 10200 20161
17Z KPBF 271653Z AUTO 17010KT 10SM OVC018 19/16 A3024 RMK AO2 SLP237
16Z KPBF 271553Z AUTO 16011KT 10SM CLR 18/15 A3024 RMK AO2 SLP237
15Z KPBF 271453Z AUTO 15009KT 10SM BKN017 BKN022 OVC027 17/14 A3025
         RMK AO2 SLP242 60001 T01670144 58001
14Z KPBF 271353Z AUTO 15007KT 10SM BKN019 OVC080 16/14 A3027 RMK AO2
         RAE53 SLP247 P0001 T01610144
13Z KPBF 271253Z AUTO 15006KT 10SM -RA FEW080 BKN120 16/14 A3026 RMK
         AO2 RAB06 SLP245 P0000 T01610144
12Z KPBF 271153Z AUTO 15008KT 10SM SCT070 17/14 A3026 RMK AO2 RAE06
         SLP243 P0000 60000 T01670144 10183 20167 56010
11Z KPBF 271053Z AUTO 15006KT 10SM -RA FEW090 SCT120 17/14 A3026 RMK
         AO2 RAE16B52 SLP243 P0000 T01670144
***** Today's Observations (Above) *****

Back to Main Page

USA.gov is the U.S. government's official web portal to all federal, state and local government web resources and services.